Latest Coastal Weather Observations for Yeppoon

IDQ60701

Issued at 12:13 am EST Thursday 11 August 2022 (issued every 10 minutes, with the page automatically refreshed every 10 minutes)

About coastal observations | Map of coastal stations | Coastal observations for QLD | Marine services | Other Formats
Station Details ID: 033294 Name: YEPPOON THE ESPLANADE Lat: -23.14 Lon: 150.75 Height: 5.5 m
Data from the previous 72 hours. | See also: Recent months at Yeppoon
Date/Time
EST
Wind Sea
Height
m
Swell Vis
km
Cloud Weather Temp
°C
Press
MSL
hPa
Rain since
9am
mm
Dir  Spd
kts
Gust
kts
Height
m
Period
s
Dir
11/12:00am SE 11 17 - - - - - - - 18.1 1022.5 0.0
 
Date/Time
EST
Wind Sea
Height
m
Swell Vis
km
Cloud Weather Temp
°C
Press
MSL
hPa
Rain since
9am
mm
Dir  Spd
kts
Gust
kts
Height
m
Period
s
Dir
10/11:30pm ESE 11 17 - - - - - - - 18.3 1022.7 0.0
10/11:00pm ESE 12 19 - - - - - - - 18.4 1023.0 0.0
10/10:30pm ESE 12 18 - - - - - - - 18.5 1023.0 0.0
10/10:00pm ESE 12 19 - - - - - - - 18.6 1023.0 0.0
10/09:30pm ESE 12 17 - - - - - - - 18.8 1023.2 0.0
10/09:00pm ESE 13 18 - - - - - - - 18.9 1023.4 0.0
10/08:30pm ESE 13 18 - - - - - - - 18.9 1023.4 0.0
10/08:00pm ESE 12 17 - - - - - - - 19.0 1023.3 0.0
10/07:30pm E 14 16 - - - - - - - 19.1 1022.9 0.0
10/07:00pm ESE 12 16 - - - - - - - 19.2 1022.8 0.0
10/06:30pm ESE 12 16 - - - - - - - 19.1 1022.5 0.0
10/06:00pm ESE 14 18 - - - - - - - 19.1 1022.1 0.0
10/05:30pm ESE 13 16 - - - - - - - 19.0 1021.6 0.0
10/05:00pm ESE 12 16 - - - - - - - 19.2 1021.5 0.0
10/04:30pm ESE 13 18 - - - - - - - 19.3 1021.3 0.0
10/04:00pm ESE 12 17 - - - - - - - 19.2 1021.3 0.0
10/03:30pm ESE 13 18 - - - - - - - 19.3 1021.3 0.0
10/03:00pm ESE 15 20 - - - - - - - 19.5 1021.4 0.0
10/02:30pm ESE 14 19 - - - - - - - 19.5 1021.6 0.0
10/02:00pm ESE 15 19 - - - - - - - 19.7 1021.7 0.0
10/01:30pm ESE 13 17 - - - - - - - 20.2 1021.9 0.0
10/01:00pm ESE 13 16 - - - - - - - 20.1 1022.1 0.0
10/12:30pm ESE 11 15 - - - - - - - 20.0 1022.4 0.0
10/12:00pm ESE 10 14 - - - - - - - 20.3 1022.5 0.0
10/11:30am ESE 10 15 - - - - - - - 19.6 1023.0 0.0
10/11:00am ESE 9 14 - - - - - - - 19.6 1023.4 0.0
10/10:30am SE 10 15 - - - - - - - 19.1 1023.6 0.0
10/10:00am SE 8 11 - - - - - - - 19.1 1023.6 0.0
10/09:30am SSE 9 13 - - - - - - - 18.1 1023.7 0.0
10/09:00am S 6 9 - - - - - - - 17.2 1023.6 0.0
10/08:30am SSW 7 9 - - - - - - - 15.8 1023.4 0.0
10/08:00am W 5 6 - - - - - - - 14.0 1023.2 0.0
10/07:30am W 6 8 - - - - - - - 11.7 1023.0 0.0
10/07:00am WNW 7 9 - - - - - - - 9.6 1022.6 0.0
10/06:30am WNW 8 10 - - - - - - - 8.9 1022.1 0.0
10/06:00am WNW 8 10 - - - - - - - 8.7 1021.7 0.0
10/05:30am WNW 7 9 - - - - - - - 8.5 1021.3 0.0
10/05:00am W 7 8 - - - - - - - 9.0 1020.9 0.0
10/04:30am WNW 9 11 - - - - - - - 8.8 1020.7 0.0
10/04:00am W 6 8 - - - - - - - 8.5 1020.7 0.0
10/03:30am W 7 10 - - - - - - - 8.8 1020.7 0.0
10/03:00am W 7 9 - - - - - - - 8.7 1020.6 0.0
10/02:30am W 7 10 - - - - - - - 9.5 1020.7 0.0
10/02:00am WNW 9 11 - - - - - - - 8.8 1020.6 0.0
10/01:30am W 7 8 - - - - - - - 9.4 1020.7 0.0
10/01:00am W 7 9 - - - - - - - 9.7 1020.8 0.0
10/12:30am W 8 9 - - - - - - - 10.0 1020.8 0.0
10/12:00am W 7 8 - - - - - - - 10.4 1020.9 0.0
 
Date/Time
EST
Wind Sea
Height
m
Swell Vis
km
Cloud Weather Temp
°C
Press
MSL
hPa
Rain since
9am
mm
Dir  Spd
kts
Gust
kts
Height
m
Period
s
Dir
09/11:30pm W 7 8 - - - - - - - 10.8 1021.0 0.0
09/11:00pm W 7 8 - - - - - - - 10.8 1021.0 0.0
09/10:30pm WNW 7 8 - - - - - - - 11.0 1021.1 0.0
09/10:00pm WNW 7 8 - - - - - - - 11.0 1021.0 0.0
09/09:30pm W 7 7 - - - - - - - 11.4 1020.9 0.0
09/09:00pm W 5 6 - - - - - - - 12.2 1020.9 0.0
09/08:30pm W 6 6 - - - - - - - 12.6 1020.8 0.0
09/08:00pm WNW 6 7 - - - - - - - 13.4 1020.6 0.0
09/07:30pm W 6 7 - - - - - - - 14.3 1020.2 0.0
09/07:00pm WSW 4 5 - - - - - - - 14.9 1019.8 0.0
09/06:30pm S 3 4 - - - - - - - 16.7 1019.2 0.0
09/06:00pm E 8 10 - - - - - - - 18.9 1018.9 0.0
09/05:30pm ENE 9 10 - - - - - - - 19.0 1018.6 0.0
09/05:00pm E 8 9 - - - - - - - 19.3 1018.3 0.0
09/04:30pm E 9 10 - - - - - - - 19.6 1018.1 0.0
09/04:00pm E 9 10 - - - - - - - 19.5 1017.9 0.0
09/03:30pm E 9 11 - - - - - - - 19.6 1017.9 0.0
09/03:00pm E 9 11 - - - - - - - 20.0 1017.8 0.0
09/02:30pm E 10 12 - - - - - - - 20.3 1018.0 0.0
09/02:00pm ESE 11 14 - - - - - - - 20.3 1018.2 0.0
09/01:30pm E 11 14 - - - - - - - 20.4 1018.6 0.0
09/01:00pm ESE 11 14 - - - - - - - 20.4 1019.0 0.0
09/12:30pm ESE 9 14 - - - - - - - 20.7 1019.3 0.0
09/12:00pm SE 7 12 - - - - - - - 20.5 1019.9 0.0
09/11:30am SE 8 12 - - - - - - - 20.6 1020.3 0.0
09/11:00am S 10 15 - - - - - - - 19.7 1020.9 0.0
09/10:30am S 10 16 - - - - - - - 19.1 1021.3 0.0
09/10:00am S 10 14 - - - - - - - 18.3 1021.5 0.0
09/09:30am S 9 15 - - - - - - - 17.5 1021.7 0.0
09/09:00am S 10 15 - - - - - - - 16.3 1021.6 0.0
09/08:30am SSW 9 14 - - - - - - - 15.4 1021.5 0.0
09/08:00am SW 6 11 - - - - - - - 13.9 1021.2 0.0
09/07:30am WNW 7 8 - - - - - - - 10.0 1021.1 0.0
09/07:00am WNW 8 9 - - - - - - - 9.2 1020.8 0.0
09/06:30am WNW 8 11 - - - - - - - 8.2 1020.6 0.0
09/06:00am WNW 9 10 - - - - - - - 8.6 1020.2 0.0
09/05:30am WNW 8 10 - - - - - - - 8.5 1019.9 0.0
09/05:00am WNW 10 11 - - - - - - - 8.2 1019.6 0.0
09/04:30am WNW 7 9 - - - - - - - 7.3 1019.5 0.0
09/04:00am W 6 8 - - - - - - - 7.6 1019.4 0.0
09/03:30am W 5 6 - - - - - - - 7.9 1019.3 0.0
09/03:00am W 5 7 - - - - - - - 8.1 1019.2 0.0
09/02:30am W 5 8 - - - - - - - 8.3 1019.3 0.0
09/02:00am WNW 7 8 - - - - - - - 8.7 1019.4 0.0
09/01:30am W 6 9 - - - - - - - 9.3 1019.7 0.0
09/01:00am W 7 9 - - - - - - - 9.9 1019.9 0.0
09/12:30am W 7 8 - - - - - - - 9.7 1020.0 0.0
09/12:00am WNW 8 10 - - - - - - - 10.2 1019.8 0.0
 
Date/Time
EST
Wind Sea
Height
m
Swell Vis
km
Cloud Weather Temp
°C
Press
MSL
hPa
Rain since
9am
mm
Dir  Spd
kts
Gust
kts
Height
m
Period
s
Dir
08/11:30pm WNW 8 9 - - - - - - - 10.5 1020.0 0.0
08/11:00pm W 7 9 - - - - - - - 10.4 1020.0 0.0
08/10:30pm W 6 7 - - - - - - - 11.1 1020.0 0.0
08/10:00pm WNW 7 8 - - - - - - - 11.2 1019.9 0.0
08/09:30pm WNW 7 8 - - - - - - - 11.7 1020.0 0.0
08/09:00pm WNW 6 7 - - - - - - - 11.9 1019.8 0.0
08/08:30pm WSW 3 4 - - - - - - - 12.7 1019.6 0.0
08/08:00pm W 5 7 - - - - - - - 13.3 1019.4 0.0
08/07:30pm WNW 6 8 - - - - - - - 13.5 1019.2 0.0
08/07:00pm WNW 5 5 - - - - - - - 14.6 1018.9 0.0
08/06:30pm WNW 4 5 - - - - - - - 15.7 1018.4 0.0
08/06:00pm E 5 7 - - - - - - - 18.5 1018.1 0.0
08/05:30pm NNE 4 5 - - - - - - - 18.5 1017.8 0.0
08/05:00pm ENE 5 6 - - - - - - - 18.8 1017.7 0.0
08/04:30pm ENE 6 8 - - - - - - - 19.1 1017.5 0.0
08/04:00pm E 7 8 - - - - - - - 19.2 1017.3 0.0
08/03:30pm ENE 6 8 - - - - - - - 19.4 1017.0 0.0
08/03:00pm ENE 8 9 - - - - - - - 19.7 1017.1 0.0
08/02:30pm NE 7 10 - - - - - - - 20.1 1017.2 0.0
08/02:00pm E 10 12 - - - - - - - 19.8 1017.4 0.0
08/01:30pm ESE 11 13 - - - - - - - 20.1 1017.6 0.0
08/01:00pm ESE 12 15 - - - - - - - 20.0 1018.0 0.0
08/12:30pm ESE 12 15 - - - - - - - 19.9 1018.6 0.0
08/12:00pm ESE 9 14 - - - - - - - 20.5 1019.1 0.0
08/11:30am SSE 10 15 - - - - - - - 19.8 1019.9 0.0
08/11:00am SSE 10 14 - - - - - - - 19.7 1020.4 0.0
08/10:30am SSE 11 16 - - - - - - - 19.1 1020.9 0.0
08/10:00am SSE 11 15 - - - - - - - 18.9 1021.0 0.0
08/09:30am SSE 9 14 - - - - - - - 18.6 1020.9 0.0
08/09:00am S 10 15 - - - - - - - 17.6 1020.8 0.0
08/08:30am S 7 11 - - - - - - - 17.2 1020.5 0.0
08/08:00am SSW 7 10 - - - - - - - 15.8 1020.1 0.0
08/07:30am SW 6 8 - - - - - - - 13.3 1020.1 0.0
08/07:00am WSW 4 5 - - - - - - - 11.4 1019.8 0.0
08/06:30am SW 6 8 - - - - - - - 11.5 1019.3 0.0
08/06:00am SW 7 9 - - - - - - - 11.6 1018.9 0.0
08/05:30am SW 6 8 - - - - - - - 11.6 1018.4 0.0
08/05:00am SW 6 7 - - - - - - - 11.6 1018.1 0.0
08/04:30am SW 5 7 - - - - - - - 11.3 1017.8 0.0
08/04:00am WNW 6 7 - - - - - - - 10.4 1017.6 0.0
08/03:30am W 7 8 - - - - - - - 10.8 1017.5 0.0
08/03:00am W 6 8 - - - - - - - 11.2 1017.4 0.0
08/02:30am W 7 9 - - - - - - - 11.3 1017.4 0.0
08/02:00am W 7 8 - - - - - - - 11.6 1017.6 0.0
08/01:30am W 6 8 - - - - - - - 11.7 1017.7 0.0
08/01:00am W 6 7 - - - - - - - 12.2 1018.0 0.0
08/12:30am W 6 8 - - - - - - - 11.9 1018.1 0.0

Other formats

Comma delimited format used in spreadsheet applications
http://www.bom.gov.au/fwo/IDQ60701/IDQ60701.94373.axf

JavaScript Object Notation format (JSON) in row-major order
http://www.bom.gov.au/fwo/IDQ60701/IDQ60701.94373.json

Data quality

Most of these data are generated automatically and are frequently updated. Quality checks on data are not normally performed. It is possible for incorrect values to appear. Refer to information at About Latest Weather Observations and please check the disclaimer before using these data.